sensor_id;sensor_type;location;lat;lon;timestamp;P1;durP1;ratioP1;P2;durP2;ratioP2
32535;SDS011;18974;50.838;4.636;2023-11-21T00:00:49;103.97;;;46.03;;
32535;SDS011;18974;50.838;4.636;2023-11-21T00:03:14;95.25;;;43.50;;
32535;SDS011;18974;50.838;4.636;2023-11-21T00:05:40;103.78;;;45.25;;
32535;SDS011;18974;50.838;4.636;2023-11-21T00:08:07;111.63;;;44.90;;
32535;SDS011;18974;50.838;4.636;2023-11-21T00:10:33;103.80;;;45.05;;
32535;SDS011;18974;50.838;4.636;2023-11-21T00:12:59;95.38;;;42.90;;
32535;SDS011;18974;50.838;4.636;2023-11-21T00:15:27;93.38;;;43.40;;
32535;SDS011;18974;50.838;4.636;2023-11-21T00:17:53;95.07;;;41.72;;
32535;SDS011;18974;50.838;4.636;2023-11-21T00:20:18;101.00;;;42.92;;
32535;SDS011;18974;50.838;4.636;2023-11-21T00:22:45;101.95;;;44.53;;
32535;SDS011;18974;50.838;4.636;2023-11-21T00:25:11;102.53;;;44.38;;
32535;SDS011;18974;50.838;4.636;2023-11-21T00:27:39;110.95;;;45.58;;
32535;SDS011;18974;50.838;4.636;2023-11-21T00:30:05;89.40;;;42.28;;
32535;SDS011;18974;50.838;4.636;2023-11-21T00:32:31;97.32;;;43.63;;
32535;SDS011;18974;50.838;4.636;2023-11-21T00:34:57;105.47;;;46.40;;
32535;SDS011;18974;50.838;4.636;2023-11-21T00:37:24;110.68;;;47.90;;
32535;SDS011;18974;50.838;4.636;2023-11-21T00:39:50;105.13;;;45.17;;
32535;SDS011;18974;50.838;4.636;2023-11-21T00:42:15;95.78;;;44.03;;
32535;SDS011;18974;50.838;4.636;2023-11-21T00:44:41;106.72;;;44.38;;
32535;SDS011;18974;50.838;4.636;2023-11-21T00:47:06;105.85;;;43.50;;
32535;SDS011;18974;50.838;4.636;2023-11-21T00:49:33;107.78;;;42.80;;
32535;SDS011;18974;50.838;4.636;2023-11-21T00:51:58;107.53;;;46.65;;
32535;SDS011;18974;50.838;4.636;2023-11-21T00:54:24;112.38;;;46.63;;
32535;SDS011;18974;50.838;4.636;2023-11-21T00:56:50;121.18;;;48.00;;
32535;SDS011;18974;50.838;4.636;2023-11-21T00:59:15;114.18;;;47.05;;
32535;SDS011;18974;50.838;4.636;2023-11-21T01:01:41;115.50;;;45.80;;
32535;SDS011;18974;50.838;4.636;2023-11-21T01:04:06;133.73;;;46.72;;
32535;SDS011;18974;50.838;4.636;2023-11-21T01:06:32;100.03;;;40.95;;
32535;SDS011;18974;50.838;4.636;2023-11-21T01:08:58;108.63;;;41.63;;
32535;SDS011;18974;50.838;4.636;2023-11-21T01:11:24;139.70;;;41.88;;
32535;SDS011;18974;50.838;4.636;2023-11-21T01:13:49;614.88;;;56.05;;
32535;SDS011;18974;50.838;4.636;2023-11-21T01:16:15;128.27;;;42.72;;
32535;SDS011;18974;50.838;4.636;2023-11-21T01:18:40;210.18;;;41.15;;
32535;SDS011;18974;50.838;4.636;2023-11-21T01:21:06;92.80;;;38.72;;
32535;SDS011;18974;50.838;4.636;2023-11-21T01:23:32;77.32;;;34.90;;
32535;SDS011;18974;50.838;4.636;2023-11-21T01:25:58;71.28;;;35.60;;
32535;SDS011;18974;50.838;4.636;2023-11-21T01:28:24;86.15;;;34.03;;
32535;SDS011;18974;50.838;4.636;2023-11-21T01:30:49;98.82;;;36.83;;
32535;SDS011;18974;50.838;4.636;2023-11-21T01:33:15;90.32;;;35.35;;
32535;SDS011;18974;50.838;4.636;2023-11-21T01:35:44;84.47;;;33.22;;
32535;SDS011;18974;50.838;4.636;2023-11-21T01:38:11;149.90;;;38.45;;
32535;SDS011;18974;50.838;4.636;2023-11-21T01:40:37;87.75;;;33.85;;
32535;SDS011;18974;50.838;4.636;2023-11-21T01:43:03;83.88;;;33.03;;
32535;SDS011;18974;50.838;4.636;2023-11-21T01:45:28;89.28;;;36.08;;
32535;SDS011;18974;50.838;4.636;2023-11-21T01:47:56;77.75;;;32.05;;
32535;SDS011;18974;50.838;4.636;2023-11-21T01:50:23;89.53;;;32.75;;
32535;SDS011;18974;50.838;4.636;2023-11-21T01:52:50;94.45;;;36.80;;
32535;SDS011;18974;50.838;4.636;2023-11-21T01:55:17;100.13;;;34.58;;
32535;SDS011;18974;50.838;4.636;2023-11-21T01:57:43;103.45;;;36.20;;
32535;SDS011;18974;50.838;4.636;2023-11-21T02:00:11;100.97;;;37.42;;
32535;SDS011;18974;50.838;4.636;2023-11-21T02:02:47;135.45;;;39.03;;
32535;SDS011;18974;50.838;4.636;2023-11-21T02:05:17;115.18;;;36.80;;
32535;SDS011;18974;50.838;4.636;2023-11-21T02:07:44;103.07;;;34.67;;
32535;SDS011;18974;50.838;4.636;2023-11-21T02:10:10;114.38;;;36.05;;
32535;SDS011;18974;50.838;4.636;2023-11-21T02:12:40;96.85;;;33.67;;
32535;SDS011;18974;50.838;4.636;2023-11-21T02:15:07;100.82;;;36.58;;
32535;SDS011;18974;50.838;4.636;2023-11-21T02:17:41;108.07;;;35.83;;
32535;SDS011;18974;50.838;4.636;2023-11-21T02:20:09;113.50;;;37.13;;
32535;SDS011;18974;50.838;4.636;2023-11-21T02:22:42;100.18;;;34.97;;
32535;SDS011;18974;50.838;4.636;2023-11-21T02:25:23;93.20;;;34.42;;
32535;SDS011;18974;50.838;4.636;2023-11-21T02:27:53;105.10;;;34.35;;
32535;SDS011;18974;50.838;4.636;2023-11-21T02:30:20;115.13;;;36.38;;
32535;SDS011;18974;50.838;4.636;2023-11-21T02:32:47;101.07;;;35.10;;
32535;SDS011;18974;50.838;4.636;2023-11-21T02:35:13;103.05;;;35.47;;
32535;SDS011;18974;50.838;4.636;2023-11-21T02:37:40;99.82;;;34.97;;
32535;SDS011;18974;50.838;4.636;2023-11-21T02:40:08;106.93;;;35.25;;
32535;SDS011;18974;50.838;4.636;2023-11-21T02:42:35;113.13;;;34.95;;
32535;SDS011;18974;50.838;4.636;2023-11-21T02:45:00;120.82;;;37.17;;
32535;SDS011;18974;50.838;4.636;2023-11-21T02:47:26;93.60;;;33.40;;
32535;SDS011;18974;50.838;4.636;2023-11-21T02:49:52;103.25;;;33.97;;
32535;SDS011;18974;50.838;4.636;2023-11-21T02:52:18;96.03;;;33.90;;
32535;SDS011;18974;50.838;4.636;2023-11-21T02:54:44;98.47;;;34.55;;
32535;SDS011;18974;50.838;4.636;2023-11-21T02:57:10;107.25;;;35.00;;
32535;SDS011;18974;50.838;4.636;2023-11-21T02:59:35;91.57;;;33.22;;
32535;SDS011;18974;50.838;4.636;2023-11-21T03:02:01;96.38;;;31.35;;
32535;SDS011;18974;50.838;4.636;2023-11-21T03:04:26;117.75;;;33.53;;
32535;SDS011;18974;50.838;4.636;2023-11-21T03:06:52;107.13;;;35.72;;
32535;SDS011;18974;50.838;4.636;2023-11-21T03:09:18;92.13;;;34.28;;
32535;SDS011;18974;50.838;4.636;2023-11-21T03:11:43;89.10;;;31.92;;
32535;SDS011;18974;50.838;4.636;2023-11-21T03:14:09;90.63;;;30.83;;
32535;SDS011;18974;50.838;4.636;2023-11-21T03:16:35;91.47;;;33.03;;
32535;SDS011;18974;50.838;4.636;2023-11-21T03:19:03;86.13;;;31.52;;
32535;SDS011;18974;50.838;4.636;2023-11-21T03:21:30;102.45;;;33.75;;
32535;SDS011;18974;50.838;4.636;2023-11-21T03:23:55;104.13;;;36.08;;
32535;SDS011;18974;50.838;4.636;2023-11-21T03:26:21;117.32;;;37.17;;
32535;SDS011;18974;50.838;4.636;2023-11-21T03:28:47;108.95;;;36.38;;
32535;SDS011;18974;50.838;4.636;2023-11-21T03:31:13;105.72;;;35.53;;
32535;SDS011;18974;50.838;4.636;2023-11-21T03:33:38;117.43;;;36.67;;
32535;SDS011;18974;50.838;4.636;2023-11-21T03:36:04;102.57;;;33.22;;
32535;SDS011;18974;50.838;4.636;2023-11-21T03:38:30;110.97;;;36.03;;
32535;SDS011;18974;50.838;4.636;2023-11-21T03:40:56;135.35;;;36.53;;
32535;SDS011;18974;50.838;4.636;2023-11-21T03:43:21;127.10;;;37.08;;
32535;SDS011;18974;50.838;4.636;2023-11-21T03:45:47;127.65;;;38.70;;
32535;SDS011;18974;50.838;4.636;2023-11-21T03:48:13;114.63;;;37.47;;
32535;SDS011;18974;50.838;4.636;2023-11-21T03:50:39;113.63;;;37.50;;
32535;SDS011;18974;50.838;4.636;2023-11-21T03:53:05;115.55;;;36.78;;
32535;SDS011;18974;50.838;4.636;2023-11-21T03:55:30;102.28;;;34.55;;
32535;SDS011;18974;50.838;4.636;2023-11-21T03:57:57;105.82;;;35.63;;
32535;SDS011;18974;50.838;4.636;2023-11-21T04:00:24;98.80;;;34.78;;
32535;SDS011;18974;50.838;4.636;2023-11-21T04:02:51;102.78;;;34.58;;
32535;SDS011;18974;50.838;4.636;2023-11-21T04:05:17;99.55;;;35.83;;
32535;SDS011;18974;50.838;4.636;2023-11-21T04:07:44;108.13;;;35.88;;
32535;SDS011;18974;50.838;4.636;2023-11-21T04:10:10;110.78;;;36.15;;
32535;SDS011;18974;50.838;4.636;2023-11-21T04:12:37;96.95;;;33.60;;
32535;SDS011;18974;50.838;4.636;2023-11-21T04:15:03;101.88;;;35.10;;
32535;SDS011;18974;50.838;4.636;2023-11-21T04:17:29;99.78;;;35.00;;
32535;SDS011;18974;50.838;4.636;2023-11-21T04:19:55;111.30;;;35.53;;
32535;SDS011;18974;50.838;4.636;2023-11-21T04:22:21;105.40;;;33.70;;
32535;SDS011;18974;50.838;4.636;2023-11-21T04:24:47;97.82;;;33.72;;
32535;SDS011;18974;50.838;4.636;2023-11-21T04:27:12;99.32;;;33.33;;
32535;SDS011;18974;50.838;4.636;2023-11-21T04:29:39;83.75;;;31.13;;
32535;SDS011;18974;50.838;4.636;2023-11-21T04:32:06;90.03;;;31.95;;
32535;SDS011;18974;50.838;4.636;2023-11-21T04:34:32;91.70;;;32.65;;
32535;SDS011;18974;50.838;4.636;2023-11-21T04:36:59;82.25;;;29.63;;
32535;SDS011;18974;50.838;4.636;2023-11-21T04:39:25;82.15;;;29.52;;
32535;SDS011;18974;50.838;4.636;2023-11-21T04:41:51;86.93;;;31.80;;
32535;SDS011;18974;50.838;4.636;2023-11-21T04:44:16;81.63;;;29.25;;
32535;SDS011;18974;50.838;4.636;2023-11-21T04:46:42;79.00;;;30.35;;
32535;SDS011;18974;50.838;4.636;2023-11-21T04:49:08;74.15;;;28.90;;
32535;SDS011;18974;50.838;4.636;2023-11-21T04:51:34;78.53;;;29.80;;
32535;SDS011;18974;50.838;4.636;2023-11-21T04:53:59;85.13;;;30.35;;
32535;SDS011;18974;50.838;4.636;2023-11-21T04:56:25;80.57;;;28.40;;
32535;SDS011;18974;50.838;4.636;2023-11-21T04:58:51;95.32;;;33.38;;
32535;SDS011;18974;50.838;4.636;2023-11-21T05:01:16;86.60;;;31.13;;
32535;SDS011;18974;50.838;4.636;2023-11-21T05:03:42;103.50;;;34.85;;
32535;SDS011;18974;50.838;4.636;2023-11-21T05:06:11;110.45;;;35.58;;
32535;SDS011;18974;50.838;4.636;2023-11-21T05:08:37;98.47;;;35.15;;
32535;SDS011;18974;50.838;4.636;2023-11-21T05:11:03;96.10;;;33.97;;
32535;SDS011;18974;50.838;4.636;2023-11-21T05:13:28;113.13;;;33.45;;
32535;SDS011;18974;50.838;4.636;2023-11-21T05:15:54;95.75;;;32.53;;
32535;SDS011;18974;50.838;4.636;2023-11-21T05:18:23;105.75;;;35.97;;
32535;SDS011;18974;50.838;4.636;2023-11-21T05:20:52;99.03;;;33.97;;
32535;SDS011;18974;50.838;4.636;2023-11-21T05:23:18;113.20;;;35.10;;
32535;SDS011;18974;50.838;4.636;2023-11-21T05:25:44;98.88;;;34.67;;
32535;SDS011;18974;50.838;4.636;2023-11-21T05:28:11;114.72;;;34.90;;
32535;SDS011;18974;50.838;4.636;2023-11-21T05:30:37;100.82;;;34.45;;
32535;SDS011;18974;50.838;4.636;2023-11-21T05:33:04;101.97;;;33.30;;
32535;SDS011;18974;50.838;4.636;2023-11-21T05:35:30;94.85;;;32.70;;
32535;SDS011;18974;50.838;4.636;2023-11-21T05:37:56;98.82;;;32.70;;
32535;SDS011;18974;50.838;4.636;2023-11-21T05:40:21;93.65;;;32.47;;
32535;SDS011;18974;50.838;4.636;2023-11-21T05:42:47;90.38;;;32.00;;
32535;SDS011;18974;50.838;4.636;2023-11-21T05:45:13;93.90;;;32.03;;
32535;SDS011;18974;50.838;4.636;2023-11-21T05:47:40;95.10;;;32.25;;
32535;SDS011;18974;50.838;4.636;2023-11-21T05:50:09;107.10;;;33.97;;
32535;SDS011;18974;50.838;4.636;2023-11-21T05:52:43;76.45;;;29.65;;
32535;SDS011;18974;50.838;4.636;2023-11-21T05:55:10;75.15;;;29.10;;
32535;SDS011;18974;50.838;4.636;2023-11-21T05:57:36;81.00;;;29.65;;
32535;SDS011;18974;50.838;4.636;2023-11-21T06:00:06;81.75;;;29.23;;
32535;SDS011;18974;50.838;4.636;2023-11-21T06:02:49;78.85;;;29.25;;
32535;SDS011;18974;50.838;4.636;2023-11-21T06:05:17;74.07;;;27.60;;
32535;SDS011;18974;50.838;4.636;2023-11-21T06:07:44;83.53;;;27.95;;
32535;SDS011;18974;50.838;4.636;2023-11-21T06:10:10;77.82;;;25.63;;
32535;SDS011;18974;50.838;4.636;2023-11-21T06:12:39;70.55;;;25.17;;
32535;SDS011;18974;50.838;4.636;2023-11-21T06:15:07;64.78;;;26.30;;
32535;SDS011;18974;50.838;4.636;2023-11-21T06:17:35;64.32;;;25.83;;
32535;SDS011;18974;50.838;4.636;2023-11-21T06:20:05;75.97;;;26.65;;
32535;SDS011;18974;50.838;4.636;2023-11-21T06:22:38;75.97;;;25.98;;
32535;SDS011;18974;50.838;4.636;2023-11-21T06:25:05;83.82;;;26.58;;
32535;SDS011;18974;50.838;4.636;2023-11-21T06:27:32;64.65;;;24.73;;
32535;SDS011;18974;50.838;4.636;2023-11-21T06:29:59;78.45;;;27.45;;
32535;SDS011;18974;50.838;4.636;2023-11-21T06:32:24;71.70;;;26.50;;
32535;SDS011;18974;50.838;4.636;2023-11-21T06:34:51;73.43;;;27.90;;
32535;SDS011;18974;50.838;4.636;2023-11-21T06:37:19;78.05;;;27.90;;
32535;SDS011;18974;50.838;4.636;2023-11-21T06:39:48;99.50;;;33.90;;
32535;SDS011;18974;50.838;4.636;2023-11-21T06:42:14;96.50;;;33.95;;
32535;SDS011;18974;50.838;4.636;2023-11-21T06:44:40;101.60;;;34.50;;
32535;SDS011;18974;50.838;4.636;2023-11-21T06:47:06;106.28;;;35.15;;
32535;SDS011;18974;50.838;4.636;2023-11-21T06:49:32;113.55;;;36.10;;
32535;SDS011;18974;50.838;4.636;2023-11-21T06:51:58;91.85;;;34.63;;
32535;SDS011;18974;50.838;4.636;2023-11-21T06:54:24;97.45;;;35.78;;
32535;SDS011;18974;50.838;4.636;2023-11-21T06:56:51;113.68;;;36.30;;
32535;SDS011;18974;50.838;4.636;2023-11-21T06:59:18;90.78;;;33.25;;
32535;SDS011;18974;50.838;4.636;2023-11-21T07:01:44;89.47;;;32.33;;
32535;SDS011;18974;50.838;4.636;2023-11-21T07:04:09;102.53;;;34.15;;
32535;SDS011;18974;50.838;4.636;2023-11-21T07:06:35;110.15;;;35.25;;
32535;SDS011;18974;50.838;4.636;2023-11-21T07:09:01;101.82;;;36.60;;
32535;SDS011;18974;50.838;4.636;2023-11-21T07:11:28;102.43;;;35.30;;
32535;SDS011;18974;50.838;4.636;2023-11-21T07:13:53;132.60;;;36.88;;
32535;SDS011;18974;50.838;4.636;2023-11-21T07:16:19;112.47;;;36.22;;
32535;SDS011;18974;50.838;4.636;2023-11-21T07:18:45;104.40;;;35.70;;
32535;SDS011;18974;50.838;4.636;2023-11-21T07:21:11;115.10;;;35.78;;
32535;SDS011;18974;50.838;4.636;2023-11-21T07:23:37;101.22;;;33.92;;
32535;SDS011;18974;50.838;4.636;2023-11-21T07:26:03;104.03;;;36.03;;
32535;SDS011;18974;50.838;4.636;2023-11-21T07:28:34;97.05;;;33.92;;
32535;SDS011;18974;50.838;4.636;2023-11-21T07:31:00;105.70;;;35.20;;
32535;SDS011;18974;50.838;4.636;2023-11-21T07:33:26;99.53;;;34.45;;
32535;SDS011;18974;50.838;4.636;2023-11-21T07:35:52;101.88;;;34.35;;
32535;SDS011;18974;50.838;4.636;2023-11-21T07:38:17;110.15;;;35.65;;
32535;SDS011;18974;50.838;4.636;2023-11-21T07:40:43;103.07;;;35.92;;
32535;SDS011;18974;50.838;4.636;2023-11-21T07:43:09;106.88;;;35.63;;
32535;SDS011;18974;50.838;4.636;2023-11-21T07:45:35;92.97;;;34.17;;
32535;SDS011;18974;50.838;4.636;2023-11-21T07:48:01;92.43;;;33.13;;
32535;SDS011;18974;50.838;4.636;2023-11-21T07:50:28;99.70;;;34.60;;
32535;SDS011;18974;50.838;4.636;2023-11-21T07:52:54;103.82;;;32.83;;
32535;SDS011;18974;50.838;4.636;2023-11-21T07:55:20;92.80;;;32.08;;
32535;SDS011;18974;50.838;4.636;2023-11-21T07:57:46;90.93;;;35.40;;
32535;SDS011;18974;50.838;4.636;2023-11-21T08:00:12;89.60;;;35.45;;
32535;SDS011;18974;50.838;4.636;2023-11-21T08:02:40;97.15;;;36.50;;
32535;SDS011;18974;50.838;4.636;2023-11-21T08:05:11;88.75;;;34.47;;
32535;SDS011;18974;50.838;4.636;2023-11-21T08:07:37;99.88;;;37.15;;
32535;SDS011;18974;50.838;4.636;2023-11-21T08:10:03;87.07;;;35.15;;
32535;SDS011;18974;50.838;4.636;2023-11-21T08:12:32;106.55;;;35.42;;
32535;SDS011;18974;50.838;4.636;2023-11-21T08:15:00;87.18;;;33.85;;
32535;SDS011;18974;50.838;4.636;2023-11-21T08:17:27;91.15;;;35.42;;
32535;SDS011;18974;50.838;4.636;2023-11-21T08:19:54;88.30;;;34.35;;
32535;SDS011;18974;50.838;4.636;2023-11-21T08:22:20;95.93;;;38.17;;
32535;SDS011;18974;50.838;4.636;2023-11-21T08:24:46;97.80;;;38.63;;
32535;SDS011;18974;50.838;4.636;2023-11-21T08:27:12;97.43;;;38.17;;
32535;SDS011;18974;50.838;4.636;2023-11-21T08:29:41;96.25;;;38.10;;
32535;SDS011;18974;50.838;4.636;2023-11-21T08:32:07;98.53;;;34.35;;
32535;SDS011;18974;50.838;4.636;2023-11-21T08:34:32;94.78;;;37.83;;
32535;SDS011;18974;50.838;4.636;2023-11-21T08:36:59;85.10;;;37.53;;
32535;SDS011;18974;50.838;4.636;2023-11-21T08:39:25;101.22;;;37.47;;
32535;SDS011;18974;50.838;4.636;2023-11-21T08:41:51;101.80;;;38.88;;
32535;SDS011;18974;50.838;4.636;2023-11-21T08:44:17;92.85;;;39.63;;
32535;SDS011;18974;50.838;4.636;2023-11-21T08:46:43;84.57;;;38.85;;
32535;SDS011;18974;50.838;4.636;2023-11-21T08:49:11;84.30;;;38.45;;
32535;SDS011;18974;50.838;4.636;2023-11-21T08:51:37;80.60;;;34.30;;
32535;SDS011;18974;50.838;4.636;2023-11-21T08:54:03;95.65;;;34.25;;
32535;SDS011;18974;50.838;4.636;2023-11-21T08:56:32;69.22;;;30.40;;
32535;SDS011;18974;50.838;4.636;2023-11-21T08:59:01;81.60;;;34.13;;
32535;SDS011;18974;50.838;4.636;2023-11-21T09:01:28;95.50;;;33.75;;
32535;SDS011;18974;50.838;4.636;2023-11-21T09:03:57;89.13;;;32.50;;
32535;SDS011;18974;50.838;4.636;2023-11-21T09:06:27;90.53;;;34.20;;
32535;SDS011;18974;50.838;4.636;2023-11-21T09:08:53;95.55;;;32.65;;
32535;SDS011;18974;50.838;4.636;2023-11-21T09:11:18;94.85;;;36.20;;
32535;SDS011;18974;50.838;4.636;2023-11-21T09:13:44;86.45;;;34.38;;
32535;SDS011;18974;50.838;4.636;2023-11-21T09:16:10;95.47;;;34.00;;
32535;SDS011;18974;50.838;4.636;2023-11-21T09:18:36;91.38;;;33.78;;
32535;SDS011;18974;50.838;4.636;2023-11-21T09:21:01;77.47;;;33.35;;
32535;SDS011;18974;50.838;4.636;2023-11-21T09:23:27;85.40;;;34.20;;
32535;SDS011;18974;50.838;4.636;2023-11-21T09:25:53;83.65;;;35.03;;
32535;SDS011;18974;50.838;4.636;2023-11-21T09:28:21;84.38;;;36.60;;
32535;SDS011;18974;50.838;4.636;2023-11-21T09:30:47;73.55;;;33.80;;
32535;SDS011;18974;50.838;4.636;2023-11-21T09:33:15;89.88;;;36.90;;
32535;SDS011;18974;50.838;4.636;2023-11-21T09:35:41;85.78;;;34.92;;
32535;SDS011;18974;50.838;4.636;2023-11-21T09:38:08;87.18;;;35.80;;
32535;SDS011;18974;50.838;4.636;2023-11-21T09:40:36;91.38;;;36.72;;
32535;SDS011;18974;50.838;4.636;2023-11-21T09:43:06;73.78;;;33.17;;
32535;SDS011;18974;50.838;4.636;2023-11-21T09:45:43;77.28;;;33.38;;
32535;SDS011;18974;50.838;4.636;2023-11-21T09:48:14;80.63;;;34.45;;
32535;SDS011;18974;50.838;4.636;2023-11-21T09:50:42;92.18;;;35.75;;
32535;SDS011;18974;50.838;4.636;2023-11-21T09:53:18;78.18;;;34.63;;
32535;SDS011;18974;50.838;4.636;2023-11-21T09:55:50;86.13;;;35.10;;
32535;SDS011;18974;50.838;4.636;2023-11-21T09:58:17;94.82;;;37.83;;
32535;SDS011;18974;50.838;4.636;2023-11-21T10:00:46;110.97;;;39.70;;
32535;SDS011;18974;50.838;4.636;2023-11-21T10:03:13;95.32;;;36.22;;
32535;SDS011;18974;50.838;4.636;2023-11-21T10:05:40;79.63;;;34.35;;
32535;SDS011;18974;50.838;4.636;2023-11-21T10:08:11;84.72;;;35.22;;
32535;SDS011;18974;50.838;4.636;2023-11-21T10:10:43;71.63;;;33.30;;
32535;SDS011;18974;50.838;4.636;2023-11-21T10:13:11;72.43;;;32.08;;
32535;SDS011;18974;50.838;4.636;2023-11-21T10:15:38;77.28;;;32.35;;
32535;SDS011;18974;50.838;4.636;2023-11-21T10:18:04;78.70;;;29.30;;
32535;SDS011;18974;50.838;4.636;2023-11-21T10:20:32;74.30;;;28.55;;
32535;SDS011;18974;50.838;4.636;2023-11-21T10:23:03;93.88;;;32.97;;
32535;SDS011;18974;50.838;4.636;2023-11-21T10:25:29;86.97;;;31.73;;
32535;SDS011;18974;50.838;4.636;2023-11-21T10:27:59;84.57;;;31.27;;
32535;SDS011;18974;50.838;4.636;2023-11-21T10:30:37;93.93;;;31.95;;
32535;SDS011;18974;50.838;4.636;2023-11-21T10:33:07;94.30;;;34.28;;
32535;SDS011;18974;50.838;4.636;2023-11-21T10:36:09;96.70;;;36.47;;
32535;SDS011;18974;50.838;4.636;2023-11-21T10:38:28;99.22;;;37.22;;
32535;SDS011;18974;50.838;4.636;2023-11-21T10:41:00;99.13;;;37.40;;
32535;SDS011;18974;50.838;4.636;2023-11-21T10:43:25;105.90;;;37.25;;
32535;SDS011;18974;50.838;4.636;2023-11-21T10:45:51;103.30;;;38.67;;
32535;SDS011;18974;50.838;4.636;2023-11-21T10:48:17;90.35;;;35.78;;
32535;SDS011;18974;50.838;4.636;2023-11-21T10:50:43;93.68;;;36.75;;
32535;SDS011;18974;50.838;4.636;2023-11-21T10:53:10;82.38;;;35.22;;
32535;SDS011;18974;50.838;4.636;2023-11-21T10:55:39;74.88;;;32.78;;
32535;SDS011;18974;50.838;4.636;2023-11-21T10:58:05;79.65;;;33.80;;
32535;SDS011;18974;50.838;4.636;2023-11-21T11:00:32;75.47;;;32.80;;
32535;SDS011;18974;50.838;4.636;2023-11-21T11:02:59;75.85;;;32.95;;
32535;SDS011;18974;50.838;4.636;2023-11-21T11:05:27;72.03;;;33.50;;
32535;SDS011;18974;50.838;4.636;2023-11-21T11:07:58;62.53;;;31.67;;
32535;SDS011;18974;50.838;4.636;2023-11-21T11:10:27;71.90;;;31.98;;
32535;SDS011;18974;50.838;4.636;2023-11-21T11:12:55;61.67;;;30.50;;
32535;SDS011;18974;50.838;4.636;2023-11-21T11:15:22;57.90;;;29.23;;
32535;SDS011;18974;50.838;4.636;2023-11-21T11:17:49;63.55;;;30.00;;
32535;SDS011;18974;50.838;4.636;2023-11-21T11:20:15;57.58;;;30.00;;
32535;SDS011;18974;50.838;4.636;2023-11-21T11:28:20;58.42;;;27.77;;
32535;SDS011;18974;50.838;4.636;2023-11-21T11:31:00;60.00;;;29.00;;
32535;SDS011;18974;50.838;4.636;2023-11-21T11:33:50;57.70;;;28.80;;
32535;SDS011;18974;50.838;4.636;2023-11-21T11:36:29;63.00;;;29.30;;
32535;SDS011;18974;50.838;4.636;2023-11-21T11:39:26;53.97;;;27.90;;
32535;SDS011;18974;50.838;4.636;2023-11-21T11:42:18;57.20;;;27.83;;
32535;SDS011;18974;50.838;4.636;2023-11-21T11:47:28;59.53;;;29.45;;
32535;SDS011;18974;50.838;4.636;2023-11-21T11:50:05;54.83;;;27.30;;
32535;SDS011;18974;50.838;4.636;2023-11-21T11:52:53;54.17;;;25.33;;
32535;SDS011;18974;50.838;4.636;2023-11-21T11:55:23;57.35;;;26.25;;
32535;SDS011;18974;50.838;4.636;2023-11-21T12:00:20;60.10;;;27.33;;
32535;SDS011;18974;50.838;4.636;2023-11-21T12:02:57;60.33;;;29.75;;
32535;SDS011;18974;50.838;4.636;2023-11-21T12:05:24;59.97;;;28.52;;
32535;SDS011;18974;50.838;4.636;2023-11-21T12:07:56;59.97;;;28.73;;
32535;SDS011;18974;50.838;4.636;2023-11-21T12:10:26;60.10;;;28.70;;
32535;SDS011;18974;50.838;4.636;2023-11-21T12:12:55;57.30;;;27.92;;
32535;SDS011;18974;50.838;4.636;2023-11-21T12:15:23;53.75;;;27.95;;
32535;SDS011;18974;50.838;4.636;2023-11-21T12:17:50;55.45;;;26.33;;
32535;SDS011;18974;50.838;4.636;2023-11-21T12:20:21;49.03;;;25.88;;
32535;SDS011;18974;50.838;4.636;2023-11-21T12:22:48;44.33;;;24.52;;
32535;SDS011;18974;50.838;4.636;2023-11-21T12:25:18;47.53;;;24.77;;
32535;SDS011;18974;50.838;4.636;2023-11-21T12:27:49;43.50;;;24.05;;
32535;SDS011;18974;50.838;4.636;2023-11-21T12:30:19;43.00;;;22.42;;
32535;SDS011;18974;50.838;4.636;2023-11-21T12:32:50;38.17;;;20.92;;
32535;SDS011;18974;50.838;4.636;2023-11-21T12:35:21;32.20;;;19.23;;
32535;SDS011;18974;50.838;4.636;2023-11-21T12:37:49;35.95;;;19.52;;
32535;SDS011;18974;50.838;4.636;2023-11-21T12:40:15;37.38;;;19.17;;
32535;SDS011;18974;50.838;4.636;2023-11-21T12:42:42;31.55;;;17.95;;
32535;SDS011;18974;50.838;4.636;2023-11-21T12:47:49;25.00;;;14.68;;
32535;SDS011;18974;50.838;4.636;2023-11-21T12:50:18;23.45;;;12.68;;
32535;SDS011;18974;50.838;4.636;2023-11-21T12:52:49;20.05;;;12.80;;
32535;SDS011;18974;50.838;4.636;2023-11-21T12:55:22;24.10;;;12.35;;
32535;SDS011;18974;50.838;4.636;2023-11-21T12:57:49;17.98;;;11.23;;
32535;SDS011;18974;50.838;4.636;2023-11-21T13:00:31;23.20;;;11.75;;
32535;SDS011;18974;50.838;4.636;2023-11-21T13:02:58;17.23;;;10.82;;
32535;SDS011;18974;50.838;4.636;2023-11-21T13:07:53;16.58;;;9.20;;
32535;SDS011;18974;50.838;4.636;2023-11-21T13:10:26;16.30;;;8.30;;
32535;SDS011;18974;50.838;4.636;2023-11-21T13:12:55;13.23;;;7.85;;
32535;SDS011;18974;50.838;4.636;2023-11-21T13:15:23;17.98;;;7.95;;
32535;SDS011;18974;50.838;4.636;2023-11-21T13:17:50;11.80;;;7.63;;
32535;SDS011;18974;50.838;4.636;2023-11-21T13:20:16;13.65;;;8.38;;
32535;SDS011;18974;50.838;4.636;2023-11-21T13:22:47;11.52;;;7.53;;
32535;SDS011;18974;50.838;4.636;2023-11-21T13:25:22;13.90;;;8.00;;
32535;SDS011;18974;50.838;4.636;2023-11-21T13:27:48;14.30;;;9.25;;
32535;SDS011;18974;50.838;4.636;2023-11-21T13:30:15;16.63;;;9.57;;
32535;SDS011;18974;50.838;4.636;2023-11-21T13:32:44;16.00;;;8.48;;
32535;SDS011;18974;50.838;4.636;2023-11-21T13:35:16;17.45;;;8.65;;
32535;SDS011;18974;50.838;4.636;2023-11-21T13:37:56;16.73;;;7.95;;
32535;SDS011;18974;50.838;4.636;2023-11-21T13:40:25;11.63;;;7.82;;
32535;SDS011;18974;50.838;4.636;2023-11-21T13:42:59;15.40;;;8.65;;
32535;SDS011;18974;50.838;4.636;2023-11-21T13:45:29;10.93;;;7.88;;
32535;SDS011;18974;50.838;4.636;2023-11-21T13:47:59;11.02;;;8.10;;
32535;SDS011;18974;50.838;4.636;2023-11-21T13:50:27;10.90;;;7.72;;
32535;SDS011;18974;50.838;4.636;2023-11-21T13:53:01;11.10;;;7.50;;
32535;SDS011;18974;50.838;4.636;2023-11-21T13:55:34;12.27;;;7.80;;
32535;SDS011;18974;50.838;4.636;2023-11-21T13:58:00;10.35;;;6.97;;
32535;SDS011;18974;50.838;4.636;2023-11-21T14:00:29;13.32;;;7.30;;
32535;SDS011;18974;50.838;4.636;2023-11-21T14:03:20;9.07;;;6.38;;
32535;SDS011;18974;50.838;4.636;2023-11-21T14:05:47;11.40;;;6.15;;
32535;SDS011;18974;50.838;4.636;2023-11-21T14:08:19;11.52;;;7.20;;
32535;SDS011;18974;50.838;4.636;2023-11-21T14:10:49;10.82;;;6.55;;
32535;SDS011;18974;50.838;4.636;2023-11-21T14:13:18;9.10;;;6.05;;
32535;SDS011;18974;50.838;4.636;2023-11-21T14:15:44;11.75;;;5.57;;
32535;SDS011;18974;50.838;4.636;2023-11-21T14:18:12;6.05;;;5.30;;
32535;SDS011;18974;50.838;4.636;2023-11-21T14:20:41;6.47;;;4.95;;
32535;SDS011;18974;50.838;4.636;2023-11-21T14:23:07;8.40;;;5.10;;
32535;SDS011;18974;50.838;4.636;2023-11-21T14:25:35;8.90;;;4.90;;
32535;SDS011;18974;50.838;4.636;2023-11-21T14:28:03;9.23;;;5.95;;
32535;SDS011;18974;50.838;4.636;2023-11-21T14:30:31;8.98;;;4.93;;
32535;SDS011;18974;50.838;4.636;2023-11-21T14:32:58;8.05;;;4.78;;
32535;SDS011;18974;50.838;4.636;2023-11-21T14:35:24;8.10;;;5.28;;
32535;SDS011;18974;50.838;4.636;2023-11-21T14:37:51;5.10;;;4.38;;